Hot Springs, Montana
Current Conditions -  °F | °C
As of 9:46 AM on Friday 21 Nov 2014 (Local Time) from KMLP Reporting Station
Moderate Fog Moderate Fog  
Wind Chill: 25°   Ceiling: 100
Heat Index: 32°   Visibility: 0.25mi
Dew Point: 30°   Wind: 8mph
Humidity: 92%   Direction: 220°SW
Pressure: 29.85"   Gusts: NA
Location:  47.61°N, 114.67°W
Report Text: KMLP 211646Z AUTO 22007KT 170V240 1/4SM FG VV001 00/M01 A2985 RMK AO2 T00001011
Loading
Personal Weather Stations






























Interactive Weather Map New forecast layout! Learn more

10-Day Weather Forecast

Advertisements
Track Severe Weather on mobile